sensor_id;sensor_type;location;lat;lon;timestamp;temperature;humidity
79026;DHT22;74892;44.760;37.726;2024-03-02T04:14:58;5.34;55.36
79026;DHT22;74892;44.760;37.726;2024-03-02T04:16:06;5.40;56.47
79026;DHT22;74892;44.760;37.726;2024-03-02T04:50:04;6.69;54.86
79026;DHT22;74892;44.760;37.726;2024-03-02T04:55:13;7.07;53.30
79026;DHT22;74892;44.760;37.726;2024-03-02T08:19:43;23.00;15.40
79026;DHT22;74892;44.760;37.726;2024-03-02T08:20:45;23.03;15.76
79026;DHT22;74892;44.760;37.726;2024-03-02T08:21:47;23.10;15.93
79026;DHT22;74892;44.760;37.726;2024-03-02T08:22:50;22.83;14.99
79026;DHT22;74892;44.760;37.726;2024-03-02T08:23:52;22.71;15.55
79026;DHT22;74892;44.760;37.726;2024-03-02T08:24:54;22.73;15.97
79026;DHT22;74892;44.760;37.726;2024-03-02T08:25:56;22.82;15.77
79026;DHT22;74892;44.760;37.726;2024-03-02T08:27:00;22.81;16.29
79026;DHT22;74892;44.760;37.726;2024-03-02T08:28:02;22.68;16.00
79026;DHT22;74892;44.760;37.726;2024-03-02T08:29:04;22.44;16.37
79026;DHT22;74892;44.760;37.726;2024-03-02T08:30:07;22.39;15.65
79026;DHT22;74892;44.760;37.726;2024-03-02T08:31:10;22.51;15.10
79026;DHT22;74892;44.760;37.726;2024-03-02T08:32:12;22.46;15.80
79026;DHT22;74892;44.760;37.726;2024-03-02T08:33:14;22.67;15.50
79026;DHT22;74892;44.760;37.726;2024-03-02T08:34:15;22.86;15.22
79026;DHT22;74892;44.760;37.726;2024-03-02T08:35:17;23.03;14.21
79026;DHT22;74892;44.760;37.726;2024-03-02T08:36:20;23.07;13.88
79026;DHT22;74892;44.760;37.726;2024-03-02T08:37:22;23.05;14.90
79026;DHT22;74892;44.760;37.726;2024-03-02T08:38:24;22.94;15.30
79026;DHT22;74892;44.760;37.726;2024-03-02T08:39:28;23.01;15.35
79026;DHT22;74892;44.760;37.726;2024-03-02T08:40:31;22.93;15.42
79026;DHT22;74892;44.760;37.726;2024-03-02T08:41:33;22.81;15.92
79026;DHT22;74892;44.760;37.726;2024-03-02T08:42:35;22.56;16.29
79026;DHT22;74892;44.760;37.726;2024-03-02T08:43:37;22.47;16.20
79026;DHT22;74892;44.760;37.726;2024-03-02T08:44:39;22.43;16.42
79026;DHT22;74892;44.760;37.726;2024-03-02T08:45:44;22.44;16.51
79026;DHT22;74892;44.760;37.726;2024-03-02T08:46:49;22.37;16.12
79026;DHT22;74892;44.760;37.726;2024-03-02T08:47:51;22.49;16.58
79026;DHT22;74892;44.760;37.726;2024-03-02T08:48:53;22.60;16.15
79026;DHT22;74892;44.760;37.726;2024-03-02T08:49:55;22.55;16.10
79026;DHT22;74892;44.760;37.726;2024-03-02T08:50:57;22.55;16.74
79026;DHT22;74892;44.760;37.726;2024-03-02T08:51:59;22.56;16.28
79026;DHT22;74892;44.760;37.726;2024-03-02T08:53:03;22.55;15.28
79026;DHT22;74892;44.760;37.726;2024-03-02T08:54:08;22.50;16.08
79026;DHT22;74892;44.760;37.726;2024-03-02T08:55:10;22.44;14.94
79026;DHT22;74892;44.760;37.726;2024-03-02T08:56:15;22.52;15.75
79026;DHT22;74892;44.760;37.726;2024-03-02T08:57:17;22.55;16.16
79026;DHT22;74892;44.760;37.726;2024-03-02T08:58:19;22.49;16.16
79026;DHT22;74892;44.760;37.726;2024-03-02T08:59:22;22.46;16.47
79026;DHT22;74892;44.760;37.726;2024-03-02T09:00:26;22.27;15.16
79026;DHT22;74892;44.760;37.726;2024-03-02T09:01:28;22.20;15.29
79026;DHT22;74892;44.760;37.726;2024-03-02T09:02:31;22.40;16.03
79026;DHT22;74892;44.760;37.726;2024-03-02T09:03:34;22.62;16.20
79026;DHT22;74892;44.760;37.726;2024-03-02T09:04:36;22.54;15.51
79026;DHT22;74892;44.760;37.726;2024-03-02T09:05:38;22.35;15.98
79026;DHT22;74892;44.760;37.726;2024-03-02T09:06:43;22.35;16.00
79026;DHT22;74892;44.760;37.726;2024-03-02T09:07:45;22.39;15.68
79026;DHT22;74892;44.760;37.726;2024-03-02T09:08:47;22.53;15.16
79026;DHT22;74892;44.760;37.726;2024-03-02T09:09:51;22.63;15.31
79026;DHT22;74892;44.760;37.726;2024-03-02T09:10:56;22.70;14.81
79026;DHT22;74892;44.760;37.726;2024-03-02T09:11:58;22.70;15.67
79026;DHT22;74892;44.760;37.726;2024-03-02T09:13:00;22.65;16.00
79026;DHT22;74892;44.760;37.726;2024-03-02T09:14:05;22.69;16.03
79026;DHT22;74892;44.760;37.726;2024-03-02T09:15:07;22.63;16.46
79026;DHT22;74892;44.760;37.726;2024-03-02T09:16:09;22.78;15.48
79026;DHT22;74892;44.760;37.726;2024-03-02T09:17:12;22.53;16.00
79026;DHT22;74892;44.760;37.726;2024-03-02T09:18:15;22.42;16.01
79026;DHT22;74892;44.760;37.726;2024-03-02T09:19:20;22.23;16.44
79026;DHT22;74892;44.760;37.726;2024-03-02T09:20:22;22.14;17.19
79026;DHT22;74892;44.760;37.726;2024-03-02T09:21:27;22.02;17.90
79026;DHT22;74892;44.760;37.726;2024-03-02T09:22:29;22.13;17.98
79026;DHT22;74892;44.760;37.726;2024-03-02T09:23:36;22.35;16.02
79026;DHT22;74892;44.760;37.726;2024-03-02T09:24:38;22.61;16.73
79026;DHT22;74892;44.760;37.726;2024-03-02T09:25:40;22.92;16.91
79026;DHT22;74892;44.760;37.726;2024-03-02T09:26:42;22.95;16.29
79026;DHT22;74892;44.760;37.726;2024-03-02T09:27:44;22.96;16.04
79026;DHT22;74892;44.760;37.726;2024-03-02T09:28:46;23.05;16.74
79026;DHT22;74892;44.760;37.726;2024-03-02T09:29:48;23.15;17.00
79026;DHT22;74892;44.760;37.726;2024-03-02T09:30:50;23.23;15.91
79026;DHT22;74892;44.760;37.726;2024-03-02T09:31:51;23.26;16.54
79026;DHT22;74892;44.760;37.726;2024-03-02T09:32:53;23.20;16.54
79026;DHT22;74892;44.760;37.726;2024-03-02T09:33:55;23.16;16.54
79026;DHT22;74892;44.760;37.726;2024-03-02T09:34:57;23.05;16.24
79026;DHT22;74892;44.760;37.726;2024-03-02T09:35:59;22.66;15.82
79026;DHT22;74892;44.760;37.726;2024-03-02T09:37:01;22.53;16.93
79026;DHT22;74892;44.760;37.726;2024-03-02T09:38:05;22.62;15.93
79026;DHT22;74892;44.760;37.726;2024-03-02T09:39:10;22.68;16.77
79026;DHT22;74892;44.760;37.726;2024-03-02T09:40:13;22.72;16.26
79026;DHT22;74892;44.760;37.726;2024-03-02T09:41:15;22.72;16.29
79026;DHT22;74892;44.760;37.726;2024-03-02T09:42:17;22.54;16.80
79026;DHT22;74892;44.760;37.726;2024-03-02T09:43:19;22.54;16.90
79026;DHT22;74892;44.760;37.726;2024-03-02T09:44:21;22.47;16.60
79026;DHT22;74892;44.760;37.726;2024-03-02T09:45:24;22.44;16.39
79026;DHT22;74892;44.760;37.726;2024-03-02T09:46:27;22.40;16.11
79026;DHT22;74892;44.760;37.726;2024-03-02T09:47:29;22.33;16.62
79026;DHT22;74892;44.760;37.726;2024-03-02T09:48:31;22.32;16.42
79026;DHT22;74892;44.760;37.726;2024-03-02T09:49:33;22.26;17.05
79026;DHT22;74892;44.760;37.726;2024-03-02T09:50:34;22.25;17.80
79026;DHT22;74892;44.760;37.726;2024-03-02T09:51:37;22.25;17.43
79026;DHT22;74892;44.760;37.726;2024-03-02T09:52:39;22.33;16.85
79026;DHT22;74892;44.760;37.726;2024-03-02T09:53:41;22.09;17.60
79026;DHT22;74892;44.760;37.726;2024-03-02T09:54:48;21.97;17.36
79026;DHT22;74892;44.760;37.726;2024-03-02T09:55:50;21.93;18.07
79026;DHT22;74892;44.760;37.726;2024-03-02T09:56:52;21.79;17.96
79026;DHT22;74892;44.760;37.726;2024-03-02T09:57:54;21.55;18.13
79026;DHT22;74892;44.760;37.726;2024-03-02T09:58:55;21.49;17.75
79026;DHT22;74892;44.760;37.726;2024-03-02T09:59:57;21.60;18.60
79026;DHT22;74892;44.760;37.726;2024-03-02T10:00:59;21.92;18.47
79026;DHT22;74892;44.760;37.726;2024-03-02T10:02:02;22.05;16.75
79026;DHT22;74892;44.760;37.726;2024-03-02T10:03:04;22.04;16.58
79026;DHT22;74892;44.760;37.726;2024-03-02T10:04:07;22.02;16.53
79026;DHT22;74892;44.760;37.726;2024-03-02T10:05:09;22.10;15.97
79026;DHT22;74892;44.760;37.726;2024-03-02T10:06:25;22.23;15.26
79026;DHT22;74892;44.760;37.726;2024-03-02T10:07:27;22.28;15.74
79026;DHT22;74892;44.760;37.726;2024-03-02T10:08:43;22.31;16.54
79026;DHT22;74892;44.760;37.726;2024-03-02T10:09:47;22.29;17.99
79026;DHT22;74892;44.760;37.726;2024-03-02T10:10:49;22.14;18.60
79026;DHT22;74892;44.760;37.726;2024-03-02T10:11:51;21.93;19.57
79026;DHT22;74892;44.760;37.726;2024-03-02T10:13:04;21.77;18.64
79026;DHT22;74892;44.760;37.726;2024-03-02T10:14:13;21.73;18.29
79026;DHT22;74892;44.760;37.726;2024-03-02T10:15:23;21.67;18.23
79026;DHT22;74892;44.760;37.726;2024-03-02T10:16:25;21.50;18.89
79026;DHT22;74892;44.760;37.726;2024-03-02T10:17:31;21.43;19.83
79026;DHT22;74892;44.760;37.726;2024-03-02T10:18:33;21.48;20.13
79026;DHT22;74892;44.760;37.726;2024-03-02T10:19:35;21.65;19.39
79026;DHT22;74892;44.760;37.726;2024-03-02T10:20:39;21.63;19.41
79026;DHT22;74892;44.760;37.726;2024-03-02T10:21:40;21.55;19.58
79026;DHT22;74892;44.760;37.726;2024-03-02T10:22:43;21.63;19.32
79026;DHT22;74892;44.760;37.726;2024-03-02T10:23:45;21.60;17.50
79026;DHT22;74892;44.760;37.726;2024-03-02T10:24:47;21.29;19.34
79026;DHT22;74892;44.760;37.726;2024-03-02T10:25:49;21.04;20.25
79026;DHT22;74892;44.760;37.726;2024-03-02T10:26:51;20.88;21.03
79026;DHT22;74892;44.760;37.726;2024-03-02T10:27:57;20.92;21.57
79026;DHT22;74892;44.760;37.726;2024-03-02T10:28:59;21.01;22.14
79026;DHT22;74892;44.760;37.726;2024-03-02T10:30:03;21.07;21.53
79026;DHT22;74892;44.760;37.726;2024-03-02T10:31:07;21.22;20.90
79026;DHT22;74892;44.760;37.726;2024-03-02T10:32:10;21.33;21.24
79026;DHT22;74892;44.760;37.726;2024-03-02T10:33:14;21.31;21.83
79026;DHT22;74892;44.760;37.726;2024-03-02T10:34:16;21.33;21.11
79026;DHT22;74892;44.760;37.726;2024-03-02T10:35:19;21.22;21.98
79026;DHT22;74892;44.760;37.726;2024-03-02T10:36:21;21.21;22.50
79026;DHT22;74892;44.760;37.726;2024-03-02T10:37:23;21.32;22.32
79026;DHT22;74892;44.760;37.726;2024-03-02T10:38:25;21.34;20.73
79026;DHT22;74892;44.760;37.726;2024-03-02T10:39:28;21.46;19.86
79026;DHT22;74892;44.760;37.726;2024-03-02T10:40:29;21.62;19.96
79026;DHT22;74892;44.760;37.726;2024-03-02T10:41:34;21.73;21.18
79026;DHT22;74892;44.760;37.726;2024-03-02T10:42:38;21.61;21.83
79026;DHT22;74892;44.760;37.726;2024-03-02T10:43:41;21.52;22.64
79026;DHT22;74892;44.760;37.726;2024-03-02T10:45:31;21.24;19.41
79026;DHT22;74892;44.760;37.726;2024-03-02T10:46:34;21.10;19.80
79026;DHT22;74892;44.760;37.726;2024-03-02T10:47:37;20.95;20.37
79026;DHT22;74892;44.760;37.726;2024-03-02T10:48:46;20.64;19.54
79026;DHT22;74892;44.760;37.726;2024-03-02T10:49:49;20.56;21.52
79026;DHT22;74892;44.760;37.726;2024-03-02T10:50:52;20.41;21.92
79026;DHT22;74892;44.760;37.726;2024-03-02T10:52:00;20.48;22.54
79026;DHT22;74892;44.760;37.726;2024-03-02T10:53:02;20.59;20.94
79026;DHT22;74892;44.760;37.726;2024-03-02T10:54:05;20.65;21.62
79026;DHT22;74892;44.760;37.726;2024-03-02T10:55:10;20.62;20.64
79026;DHT22;74892;44.760;37.726;2024-03-02T10:59:11;20.74;22.07
79026;DHT22;74892;44.760;37.726;2024-03-02T11:00:18;20.59;21.49
79026;DHT22;74892;44.760;37.726;2024-03-02T11:01:26;20.56;21.17
79026;DHT22;74892;44.760;37.726;2024-03-02T11:02:30;20.54;22.07
79026;DHT22;74892;44.760;37.726;2024-03-02T11:03:35;20.55;23.90
79026;DHT22;74892;44.760;37.726;2024-03-02T11:04:40;20.65;22.05
79026;DHT22;74892;44.760;37.726;2024-03-02T11:05:47;20.77;21.21
79026;DHT22;74892;44.760;37.726;2024-03-02T11:06:50;20.79;20.48
79026;DHT22;74892;44.760;37.726;2024-03-02T11:08:05;20.85;20.60
79026;DHT22;74892;44.760;37.726;2024-03-02T11:09:08;20.89;21.21
79026;DHT22;74892;44.760;37.726;2024-03-02T11:10:11;20.91;22.63
79026;DHT22;74892;44.760;37.726;2024-03-02T11:11:15;20.96;22.53
79026;DHT22;74892;44.760;37.726;2024-03-02T11:12:29;20.98;20.79
79026;DHT22;74892;44.760;37.726;2024-03-02T11:13:32;20.89;21.32
79026;DHT22;74892;44.760;37.726;2024-03-02T11:14:38;20.94;21.58
79026;DHT22;74892;44.760;37.726;2024-03-02T11:15:43;21.06;22.05
79026;DHT22;74892;44.760;37.726;2024-03-02T11:16:46;21.08;20.99
79026;DHT22;74892;44.760;37.726;2024-03-02T11:17:49;21.02;20.76
79026;DHT22;74892;44.760;37.726;2024-03-02T11:18:51;20.91;20.66
79026;DHT22;74892;44.760;37.726;2024-03-02T11:19:53;20.79;20.09
79026;DHT22;74892;44.760;37.726;2024-03-02T11:20:55;20.66;20.76
79026;DHT22;74892;44.760;37.726;2024-03-02T11:21:58;20.59;21.96
79026;DHT22;74892;44.760;37.726;2024-03-02T11:23:05;20.55;22.05
79026;DHT22;74892;44.760;37.726;2024-03-02T11:24:36;20.30;21.23
79026;DHT22;74892;44.760;37.726;2024-03-02T11:25:38;20.22;22.63
79026;DHT22;74892;44.760;37.726;2024-03-02T11:26:41;20.14;21.79
79026;DHT22;74892;44.760;37.726;2024-03-02T11:28:47;20.20;22.79
79026;DHT22;74892;44.760;37.726;2024-03-02T11:29:49;20.33;22.85
79026;DHT22;74892;44.760;37.726;2024-03-02T11:30:51;20.44;22.89
79026;DHT22;74892;44.760;37.726;2024-03-02T11:32:03;20.42;23.11
79026;DHT22;74892;44.760;37.726;2024-03-02T11:33:06;20.39;22.14
79026;DHT22;74892;44.760;37.726;2024-03-02T11:34:28;20.45;22.52
79026;DHT22;74892;44.760;37.726;2024-03-02T11:35:30;20.47;22.50
79026;DHT22;74892;44.760;37.726;2024-03-02T11:36:32;20.53;22.81
79026;DHT22;74892;44.760;37.726;2024-03-02T11:37:34;20.54;22.37
79026;DHT22;74892;44.760;37.726;2024-03-02T11:38:36;20.40;22.11
79026;DHT22;74892;44.760;37.726;2024-03-02T11:39:43;20.40;22.58
79026;DHT22;74892;44.760;37.726;2024-03-02T11:40:45;20.30;23.65
79026;DHT22;74892;44.760;37.726;2024-03-02T11:41:47;20.26;23.87
79026;DHT22;74892;44.760;37.726;2024-03-02T11:42:49;20.25;24.34
79026;DHT22;74892;44.760;37.726;2024-03-02T11:43:50;20.18;24.16
79026;DHT22;74892;44.760;37.726;2024-03-02T11:44:56;20.15;24.14
79026;DHT22;74892;44.760;37.726;2024-03-02T11:46:04;20.09;24.36
79026;DHT22;74892;44.760;37.726;2024-03-02T11:47:08;20.06;23.33
79026;DHT22;74892;44.760;37.726;2024-03-02T11:48:12;20.06;24.98
79026;DHT22;74892;44.760;37.726;2024-03-02T11:49:15;19.99;23.94
79026;DHT22;74892;44.760;37.726;2024-03-02T11:50:36;19.95;24.72
79026;DHT22;74892;44.760;37.726;2024-03-02T11:52:00;19.91;24.03
79026;DHT22;74892;44.760;37.726;2024-03-02T11:53:02;19.86;24.32
79026;DHT22;74892;44.760;37.726;2024-03-02T11:54:07;19.89;25.43
79026;DHT22;74892;44.760;37.726;2024-03-02T11:55:11;19.89;24.59
79026;DHT22;74892;44.760;37.726;2024-03-02T11:56:14;19.80;24.78
79026;DHT22;74892;44.760;37.726;2024-03-02T11:57:18;19.73;25.18
79026;DHT22;74892;44.760;37.726;2024-03-02T11:58:21;19.66;25.16
79026;DHT22;74892;44.760;37.726;2024-03-02T11:59:26;19.56;24.27
79026;DHT22;74892;44.760;37.726;2024-03-02T12:00:28;19.44;26.20
79026;DHT22;74892;44.760;37.726;2024-03-02T12:01:34;19.24;25.99
79026;DHT22;74892;44.760;37.726;2024-03-02T12:02:37;19.11;26.58
79026;DHT22;74892;44.760;37.726;2024-03-02T12:03:40;18.92;27.15
79026;DHT22;74892;44.760;37.726;2024-03-02T12:04:42;18.83;27.65
79026;DHT22;74892;44.760;37.726;2024-03-02T12:05:49;18.83;27.12
79026;DHT22;74892;44.760;37.726;2024-03-02T12:06:59;18.91;27.20
79026;DHT22;74892;44.760;37.726;2024-03-02T12:08:06;18.81;27.48
79026;DHT22;74892;44.760;37.726;2024-03-02T12:09:10;18.61;27.69
79026;DHT22;74892;44.760;37.726;2024-03-02T12:10:16;18.55;27.74
79026;DHT22;74892;44.760;37.726;2024-03-02T12:11:18;18.61;28.23
79026;DHT22;74892;44.760;37.726;2024-03-02T13:52:44;13.69;43.21
79026;DHT22;74892;44.760;37.726;2024-03-02T13:55:47;13.60;43.18
79026;DHT22;74892;44.760;37.726;2024-03-02T13:57:04;13.52;43.31
79026;DHT22;74892;44.760;37.726;2024-03-02T14:01:08;13.31;42.68
79026;DHT22;74892;44.760;37.726;2024-03-02T14:05:29;13.23;44.13
79026;DHT22;74892;44.760;37.726;2024-03-02T14:06:34;13.19;44.37
79026;DHT22;74892;44.760;37.726;2024-03-02T14:07:37;13.24;44.13
79026;DHT22;74892;44.760;37.726;2024-03-02T14:08:40;13.24;43.61
79026;DHT22;74892;44.760;37.726;2024-03-02T14:09:52;13.21;43.56
79026;DHT22;74892;44.760;37.726;2024-03-02T14:10:54;13.11;44.18
79026;DHT22;74892;44.760;37.726;2024-03-02T14:12:16;13.11;43.26
79026;DHT22;74892;44.760;37.726;2024-03-02T14:14:11;13.06;43.50
79026;DHT22;74892;44.760;37.726;2024-03-02T14:15:29;13.02;43.67
79026;DHT22;74892;44.760;37.726;2024-03-02T14:16:52;12.90;44.19
79026;DHT22;74892;44.760;37.726;2024-03-02T14:18:00;12.84;43.84
79026;DHT22;74892;44.760;37.726;2024-03-02T14:19:02;12.81;43.87
79026;DHT22;74892;44.760;37.726;2024-03-02T14:20:19;12.77;43.84
79026;DHT22;74892;44.760;37.726;2024-03-02T14:25:30;12.70;43.48
79026;DHT22;74892;44.760;37.726;2024-03-02T14:26:37;12.65;43.49
79026;DHT22;74892;44.760;37.726;2024-03-02T14:27:44;12.63;43.31
79026;DHT22;74892;44.760;37.726;2024-03-02T14:29:25;12.64;42.97
79026;DHT22;74892;44.760;37.726;2024-03-02T14:32:18;12.53;43.12
79026;DHT22;74892;44.760;37.726;2024-03-02T14:34:04;12.49;43.33
79026;DHT22;74892;44.760;37.726;2024-03-02T14:38:13;12.51;42.96
79026;DHT22;74892;44.760;37.726;2024-03-02T14:39:20;12.52;43.12
79026;DHT22;74892;44.760;37.726;2024-03-02T14:40:22;12.57;42.58
79026;DHT22;74892;44.760;37.726;2024-03-02T14:42:07;12.55;42.64
79026;DHT22;74892;44.760;37.726;2024-03-02T14:43:27;12.57;42.97
79026;DHT22;74892;44.760;37.726;2024-03-02T14:45:16;12.59;42.73
79026;DHT22;74892;44.760;37.726;2024-03-02T14:46:51;12.61;42.85
79026;DHT22;74892;44.760;37.726;2024-03-02T14:47:53;12.63;42.81
79026;DHT22;74892;44.760;37.726;2024-03-02T14:49:09;12.67;42.77
79026;DHT22;74892;44.760;37.726;2024-03-02T14:50:14;12.69;42.37
79026;DHT22;74892;44.760;37.726;2024-03-02T14:52:38;12.67;42.53
79026;DHT22;74892;44.760;37.726;2024-03-02T15:02:00;12.57;42.48
79026;DHT22;74892;44.760;37.726;2024-03-02T16:13:30;11.93;48.63
79026;DHT22;74892;44.760;37.726;2024-03-02T16:14:44;11.92;48.54
79026;DHT22;74892;44.760;37.726;2024-03-02T16:15:58;11.90;48.73
79026;DHT22;74892;44.760;37.726;2024-03-02T16:17:23;11.90;48.73
79026;DHT22;74892;44.760;37.726;2024-03-02T16:18:31;11.88;49.00
79026;DHT22;74892;44.760;37.726;2024-03-02T16:19:41;11.90;48.89
79026;DHT22;74892;44.760;37.726;2024-03-02T16:21:11;11.91;48.97
79026;DHT22;74892;44.760;37.726;2024-03-02T16:22:20;11.89;49.05
79026;DHT22;74892;44.760;37.726;2024-03-02T16:23:42;11.91;48.77
79026;DHT22;74892;44.760;37.726;2024-03-02T16:24:50;11.88;49.20
79026;DHT22;74892;44.760;37.726;2024-03-02T16:25:52;11.87;49.25
79026;DHT22;74892;44.760;37.726;2024-03-02T16:27:04;11.90;48.57
79026;DHT22;74892;44.760;37.726;2024-03-02T16:28:08;11.90;49.15
79026;DHT22;74892;44.760;37.726;2024-03-02T16:29:30;11.88;49.47
79026;DHT22;74892;44.760;37.726;2024-03-02T16:30:34;11.87;49.60
79026;DHT22;74892;44.760;37.726;2024-03-02T16:33:50;11.90;49.66
79026;DHT22;74892;44.760;37.726;2024-03-02T16:34:58;11.87;49.71
79026;DHT22;74892;44.760;37.726;2024-03-02T16:36:03;11.86;49.89
79026;DHT22;74892;44.760;37.726;2024-03-02T16:37:12;11.85;49.93
79026;DHT22;74892;44.760;37.726;2024-03-02T16:38:22;11.85;49.98
79026;DHT22;74892;44.760;37.726;2024-03-02T16:39:33;11.83;49.60
79026;DHT22;74892;44.760;37.726;2024-03-02T16:41:10;11.83;50.07
79026;DHT22;74892;44.760;37.726;2024-03-02T16:42:18;11.81;50.13
79026;DHT22;74892;44.760;37.726;2024-03-02T16:43:28;11.82;50.14
79026;DHT22;74892;44.760;37.726;2024-03-02T16:44:33;11.81;50.24
79026;DHT22;74892;44.760;37.726;2024-03-02T16:48:49;11.86;50.06
79026;DHT22;74892;44.760;37.726;2024-03-02T16:50:13;11.84;49.57
79026;DHT22;74892;44.760;37.726;2024-03-02T16:52:00;11.82;50.18
79026;DHT22;74892;44.760;37.726;2024-03-02T16:57:47;11.73;50.58
79026;DHT22;74892;44.760;37.726;2024-03-02T17:04:38;11.61;50.91
79026;DHT22;74892;44.760;37.726;2024-03-02T17:05:51;11.56;50.80
79026;DHT22;74892;44.760;37.726;2024-03-02T17:06:55;11.58;50.87
79026;DHT22;74892;44.760;37.726;2024-03-02T17:08:13;11.57;51.14
79026;DHT22;74892;44.760;37.726;2024-03-02T17:13:36;11.53;51.07
79026;DHT22;74892;44.760;37.726;2024-03-02T17:15:03;11.51;51.38
79026;DHT22;74892;44.760;37.726;2024-03-02T17:16:06;11.49;51.24
79026;DHT22;74892;44.760;37.726;2024-03-02T17:17:08;11.51;50.92
79026;DHT22;74892;44.760;37.726;2024-03-02T17:18:10;11.48;50.73
79026;DHT22;74892;44.760;37.726;2024-03-02T17:19:36;11.51;50.24
79026;DHT22;74892;44.760;37.726;2024-03-02T17:20:40;11.56;50.27
79026;DHT22;74892;44.760;37.726;2024-03-02T17:21:46;11.62;50.89
79026;DHT22;74892;44.760;37.726;2024-03-02T17:22:51;11.56;51.14
79026;DHT22;74892;44.760;37.726;2024-03-02T17:24:00;11.57;50.98
79026;DHT22;74892;44.760;37.726;2024-03-02T17:25:05;11.54;51.19
79026;DHT22;74892;44.760;37.726;2024-03-02T17:26:15;11.53;51.33
79026;DHT22;74892;44.760;37.726;2024-03-02T17:27:45;11.51;51.24
79026;DHT22;74892;44.760;37.726;2024-03-02T17:29:03;11.49;51.44
79026;DHT22;74892;44.760;37.726;2024-03-02T17:30:14;11.46;51.46
79026;DHT22;74892;44.760;37.726;2024-03-02T17:31:20;11.42;51.75
79026;DHT22;74892;44.760;37.726;2024-03-02T17:32:27;11.38;51.83
79026;DHT22;74892;44.760;37.726;2024-03-02T17:33:33;11.31;51.50
79026;DHT22;74892;44.760;37.726;2024-03-02T17:34:47;11.30;51.65
79026;DHT22;74892;44.760;37.726;2024-03-02T17:35:51;11.31;51.52
79026;DHT22;74892;44.760;37.726;2024-03-02T17:36:54;11.34;51.38
79026;DHT22;74892;44.760;37.726;2024-03-02T17:37:56;11.37;51.49
79026;DHT22;74892;44.760;37.726;2024-03-02T17:38:57;11.34;51.56
79026;DHT22;74892;44.760;37.726;2024-03-02T17:39:59;11.31;51.23
79026;DHT22;74892;44.760;37.726;2024-03-02T17:41:01;11.29;51.57
79026;DHT22;74892;44.760;37.726;2024-03-02T17:42:05;11.24;51.70
79026;DHT22;74892;44.760;37.726;2024-03-02T17:43:07;11.24;51.79
79026;DHT22;74892;44.760;37.726;2024-03-02T17:44:08;11.26;51.66
79026;DHT22;74892;44.760;37.726;2024-03-02T17:45:11;11.31;51.40
79026;DHT22;74892;44.760;37.726;2024-03-02T17:46:13;11.36;50.04
79026;DHT22;74892;44.760;37.726;2024-03-02T17:47:15;11.37;49.42
79026;DHT22;74892;44.760;37.726;2024-03-02T17:48:17;11.42;49.13
79026;DHT22;74892;44.760;37.726;2024-03-02T17:49:19;11.46;49.56
79026;DHT22;74892;44.760;37.726;2024-03-02T17:50:20;11.52;48.58
79026;DHT22;74892;44.760;37.726;2024-03-02T17:51:22;11.54;49.13
79026;DHT22;74892;44.760;37.726;2024-03-02T17:52:24;11.52;49.91
79026;DHT22;74892;44.760;37.726;2024-03-02T17:53:27;11.48;49.73
79026;DHT22;74892;44.760;37.726;2024-03-02T17:54:35;11.45;49.02
79026;DHT22;74892;44.760;37.726;2024-03-02T17:55:36;11.61;43.75
79026;DHT22;74892;44.760;37.726;2024-03-02T17:56:38;11.70;46.54
79026;DHT22;74892;44.760;37.726;2024-03-02T17:57:40;11.78;47.02
79026;DHT22;74892;44.760;37.726;2024-03-02T17:58:42;11.78;47.96
79026;DHT22;74892;44.760;37.726;2024-03-02T17:59:44;11.75;48.36
79026;DHT22;74892;44.760;37.726;2024-03-02T18:00:46;11.74;49.37
79026;DHT22;74892;44.760;37.726;2024-03-02T18:01:47;11.66;49.61
79026;DHT22;74892;44.760;37.726;2024-03-02T18:02:49;11.66;49.38
79026;DHT22;74892;44.760;37.726;2024-03-02T18:03:51;11.61;49.51
79026;DHT22;74892;44.760;37.726;2024-03-02T18:04:52;11.59;50.06
79026;DHT22;74892;44.760;37.726;2024-03-02T18:05:56;11.56;50.16
79026;DHT22;74892;44.760;37.726;2024-03-02T18:06:57;11.42;50.93
79026;DHT22;74892;44.760;37.726;2024-03-02T18:07:59;11.32;50.85
79026;DHT22;74892;44.760;37.726;2024-03-02T18:09:01;11.31;50.76
79026;DHT22;74892;44.760;37.726;2024-03-02T18:10:07;11.33;50.69
79026;DHT22;74892;44.760;37.726;2024-03-02T18:11:09;11.36;50.90
79026;DHT22;74892;44.760;37.726;2024-03-02T18:12:11;11.34;50.74
79026;DHT22;74892;44.760;37.726;2024-03-02T18:13:16;11.33;50.24
79026;DHT22;74892;44.760;37.726;2024-03-02T18:14:18;11.37;50.08
79026;DHT22;74892;44.760;37.726;2024-03-02T18:15:19;11.40;49.91
79026;DHT22;74892;44.760;37.726;2024-03-02T18:16:21;11.40;49.80
79026;DHT22;74892;44.760;37.726;2024-03-02T18:17:25;11.44;50.05
79026;DHT22;74892;44.760;37.726;2024-03-02T18:18:34;11.48;49.85
79026;DHT22;74892;44.760;37.726;2024-03-02T18:19:35;11.49;49.74
79026;DHT22;74892;44.760;37.726;2024-03-02T18:20:40;11.51;50.19
79026;DHT22;74892;44.760;37.726;2024-03-02T18:21:42;11.49;50.27
79026;DHT22;74892;44.760;37.726;2024-03-02T18:22:51;11.51;49.99
79026;DHT22;74892;44.760;37.726;2024-03-02T18:23:58;11.51;49.59
79026;DHT22;74892;44.760;37.726;2024-03-02T19:36:48;10.60;52.40
79026;DHT22;74892;44.760;37.726;2024-03-02T19:38:16;10.60;52.20
79026;DHT22;74892;44.760;37.726;2024-03-02T19:39:56;10.59;52.39
79026;DHT22;74892;44.760;37.726;2024-03-02T19:41:46;10.56;52.37
79026;DHT22;74892;44.760;37.726;2024-03-02T19:43:26;10.50;52.22
79026;DHT22;74892;44.760;37.726;2024-03-02T19:45:33;10.55;51.97
79026;DHT22;74892;44.760;37.726;2024-03-02T19:47:05;10.58;51.84
79026;DHT22;74892;44.760;37.726;2024-03-02T19:48:53;10.54;52.07
79026;DHT22;74892;44.760;37.726;2024-03-02T19:54:46;10.55;51.43
79026;DHT22;74892;44.760;37.726;2024-03-02T19:58:29;10.58;51.93
79026;DHT22;74892;44.760;37.726;2024-03-02T20:00:04;10.63;51.85
79026;DHT22;74892;44.760;37.726;2024-03-02T20:01:30;10.68;51.59
79026;DHT22;74892;44.760;37.726;2024-03-02T20:02:46;10.68;52.11
79026;DHT22;74892;44.760;37.726;2024-03-02T20:04:18;10.60;52.32
79026;DHT22;74892;44.760;37.726;2024-03-02T20:05:40;10.56;52.39
79026;DHT22;74892;44.760;37.726;2024-03-02T20:06:53;10.54;52.53
79026;DHT22;74892;44.760;37.726;2024-03-02T20:08:20;10.53;52.71
79026;DHT22;74892;44.760;37.726;2024-03-02T20:09:48;10.52;52.85
79026;DHT22;74892;44.760;37.726;2024-03-02T20:15:18;10.54;52.93
79026;DHT22;74892;44.760;37.726;2024-03-02T20:17:05;10.55;53.01
79026;DHT22;74892;44.760;37.726;2024-03-02T20:18:33;10.49;53.16